Time;durP1;ratioP1;P1;durP2;ratioP2;P2;SDS_P1;SDS_P2;PMS_P1;PMS_P2;Temp;Humidity;BMP_temperature;BMP_pressure;BME280_temperature;BME280_humidity;BME280_pressure;Samples;Min_cycle;Max_cycle;Signal;HPM_P1;HPM_P2
2023/08/09 00:01:41;;;;;;;9.03;8.53;;;15.20;99.90;;;;;;5095223;27;20458;-68
2023/08/09 00:04:08;;;;;;;9.20;8.50;;;15.20;99.90;;;;;;5100190;28;20465;-68
2023/08/09 00:06:35;;;;;;;8.67;8.17;;;15.20;99.90;;;;;;5107193;28;20485;-69
2023/08/09 00:09:02;;;;;;;7.00;6.80;;;15.20;99.90;;;;;;5097307;28;20503;-68
2023/08/09 00:11:29;;;;;;;7.37;7.17;;;15.20;99.90;;;;;;5098203;28;20581;-68
2023/08/09 00:13:55;;;;;;;7.73;7.40;;;15.20;99.90;;;;;;5095789;28;20449;-67
2023/08/09 00:16:24;;;;;;;6.67;6.37;;;15.30;99.90;;;;;;5097550;28;20473;-69
2023/08/09 00:18:52;;;;;;;8.83;8.33;;;15.30;99.90;;;;;;5104757;28;20459;-69
2023/08/09 00:21:18;;;;;;;7.17;6.77;;;15.30;99.90;;;;;;5103765;28;20468;-69
2023/08/09 00:23:45;;;;;;;6.40;6.20;;;15.20;99.90;;;;;;5094602;28;20970;-69
2023/08/09 00:26:12;;;;;;;6.73;6.43;;;15.20;99.90;;;;;;5104504;28;20484;-68
2023/08/09 00:28:39;;;;;;;6.10;5.90;;;15.30;99.90;;;;;;5093334;28;20469;-70
2023/08/09 00:31:06;;;;;;;5.90;5.70;;;15.30;99.90;;;;;;5102620;28;20457;-70
2023/08/09 00:33:35;;;;;;;8.33;7.60;;;15.30;99.90;;;;;;5100268;27;20472;-70
2023/08/09 00:36:02;;;;;;;9.10;8.63;;;15.30;99.90;;;;;;5101294;28;20461;-70
2023/08/09 00:38:30;;;;;;;8.07;7.57;;;15.30;99.90;;;;;;5094147;28;20460;-70
2023/08/09 00:40:58;;;;;;;8.20;7.73;;;15.30;99.90;;;;;;5091919;28;20453;-70
2023/08/09 00:43:24;;;;;;;8.00;7.50;;;15.30;99.90;;;;;;5102874;28;20536;-70
2023/08/09 00:45:51;;;;;;;9.60;9.00;;;15.40;99.90;;;;;;5108737;28;20492;-69
2023/08/09 00:48:18;;;;;;;5.87;5.67;;;15.40;99.90;;;;;;5100711;28;20862;-68
2023/08/09 00:50:47;;;;;;;7.30;6.90;;;15.40;99.90;;;;;;5088520;28;20474;-71
2023/08/09 00:53:15;;;;;;;7.30;7.00;;;15.40;99.90;;;;;;5089361;28;20528;-69
2023/08/09 00:55:41;;;;;;;6.37;6.17;;;15.40;99.90;;;;;;5093232;28;20997;-69
2023/08/09 00:58:09;;;;;;;8.70;8.10;;;15.50;99.90;;;;;;5097579;28;20845;-70
2023/08/09 01:00:37;;;;;;;8.87;8.30;;;15.50;99.90;;;;;;5097499;28;20982;-69
2023/08/09 01:03:04;;;;;;;8.43;8.03;;;15.50;99.90;;;;;;5090841;28;20560;-68
2023/08/09 01:05:44;;;;;;;8.33;8.03;;;15.50;99.90;;;;;;5104385;28;20483;-70
2023/08/09 01:08:20;;;;;;;8.20;7.90;;;15.40;99.90;;;;;;5092560;28;20465;-69
2023/08/09 01:10:55;;;;;;;9.00;8.10;;;15.50;99.90;;;;;;5101107;28;20940;-69
2023/08/09 01:13:23;;;;;;;10.10;9.07;;;15.50;99.90;;;;;;5097810;28;20817;-68
2023/08/09 01:15:52;;;;;;;7.83;7.63;;;15.50;99.90;;;;;;5103427;28;20481;-71
2023/08/09 01:18:21;;;;;;;8.63;8.27;;;15.50;99.90;;;;;;5102716;28;20458;-70
2023/08/09 01:20:50;;;;;;;7.60;7.30;;;15.40;99.90;;;;;;5090242;28;20817;-71
2023/08/09 01:23:21;;;;;;;6.77;6.47;;;15.10;99.90;;;;;;5095229;28;20464;-71
2023/08/09 01:25:50;;;;;;;5.40;5.20;;;14.80;99.90;;;;;;5107848;28;20975;-70
2023/08/09 01:28:17;;;;;;;5.80;5.60;;;14.60;99.90;;;;;;5088571;28;20461;-71
2023/08/09 01:30:45;;;;;;;6.30;6.10;;;14.50;99.90;;;;;;5087974;28;20858;-71
2023/08/09 01:33:13;;;;;;;7.03;6.73;;;14.50;99.90;;;;;;5099419;28;20573;-71
2023/08/09 01:35:47;;;;;;;6.87;6.67;;;14.40;99.90;;;;;;5101281;28;20453;-69
2023/08/09 01:38:21;;;;;;;7.07;6.87;;;14.40;99.90;;;;;;5098756;28;20461;-69
2023/08/09 01:40:50;;;;;;;6.80;6.50;;;14.40;99.90;;;;;;5090040;28;20458;-71
2023/08/09 01:43:18;;;;;;;6.93;6.63;;;14.30;99.90;;;;;;5088837;28;20458;-70
2023/08/09 01:45:45;;;;;;;6.50;6.30;;;14.30;99.90;;;;;;5107788;28;20569;-69
2023/08/09 01:48:14;;;;;;;6.50;6.30;;;14.20;99.90;;;;;;5096630;28;20468;-72
2023/08/09 01:50:41;;;;;;;7.53;7.33;;;14.20;99.90;;;;;;5091890;28;20507;-71
2023/08/09 01:53:09;;;;;;;7.30;7.10;;;14.20;99.90;;;;;;5092206;28;20587;-72
2023/08/09 01:55:38;;;;;;;7.10;6.90;;;14.30;99.90;;;;;;5095039;28;20461;-71
2023/08/09 01:58:07;;;;;;;6.70;6.50;;;14.20;99.90;;;;;;5092554;28;20522;-71
2023/08/09 02:00:35;;;;;;;6.67;6.47;;;14.10;99.90;;;;;;5104512;28;20473;-71
2023/08/09 02:03:02;;;;;;;13.10;7.37;;;14.10;99.90;;;;;;5091625;28;20449;-70
2023/08/09 02:05:28;;;;;;;8.27;7.97;;;14.10;99.90;;;;;;5091912;28;20489;-71
2023/08/09 02:07:56;;;;;;;8.50;8.20;;;14.10;99.90;;;;;;5097088;28;20466;-69
2023/08/09 02:10:23;;;;;;;8.80;8.50;;;14.10;99.90;;;;;;5099582;28;20549;-71
2023/08/09 02:12:51;;;;;;;8.33;8.03;;;14.10;99.90;;;;;;5098619;28;20465;-72
2023/08/09 02:15:21;;;;;;;8.50;8.20;;;14.10;99.90;;;;;;5097760;28;20562;-72
2023/08/09 02:17:49;;;;;;;7.13;6.93;;;14.10;99.90;;;;;;5094795;28;21009;-71
2023/08/09 02:20:19;;;;;;;7.27;7.07;;;14.10;99.90;;;;;;5095217;28;20540;-71
2023/08/09 02:22:46;;;;;;;8.40;8.00;;;14.10;99.90;;;;;;5104622;28;21015;-70
2023/08/09 02:25:14;;;;;;;8.17;7.87;;;14.00;99.90;;;;;;5093245;28;21031;-71
2023/08/09 02:27:41;;;;;;;9.10;8.70;;;14.00;99.90;;;;;;5105208;28;20457;-70
2023/08/09 02:30:10;;;;;;;8.07;7.77;;;14.00;99.90;;;;;;5100475;28;20453;-72
2023/08/09 02:32:39;;;;;;;8.20;7.90;;;14.00;99.90;;;;;;5089511;28;20464;-70
2023/08/09 02:35:07;;;;;;;7.80;7.60;;;14.00;99.90;;;;;;5090827;28;20867;-70
2023/08/09 02:37:35;;;;;;;7.80;7.60;;;14.00;99.90;;;;;;5097294;28;20463;-70
2023/08/09 02:40:02;;;;;;;8.40;8.10;;;14.00;99.90;;;;;;5102567;28;20515;-71
2023/08/09 02:42:29;;;;;;;8.40;8.10;;;14.00;99.90;;;;;;5094985;28;20461;-71
2023/08/09 02:44:56;;;;;;;8.43;8.13;;;14.00;99.90;;;;;;5109232;28;20528;-72
2023/08/09 02:47:23;;;;;;;9.07;8.77;;;14.00;99.90;;;;;;5097965;28;20573;-69
2023/08/09 02:49:52;;;;;;;8.60;8.30;;;14.00;99.90;;;;;;5106463;28;20541;-70
2023/08/09 02:52:20;;;;;;;10.10;9.80;;;14.00;99.90;;;;;;5102850;28;20963;-72
2023/08/09 02:54:47;;;;;;;9.40;9.10;;;14.00;99.90;;;;;;5099323;28;20553;-71
2023/08/09 02:57:14;;;;;;;9.50;9.20;;;14.10;99.90;;;;;;5102006;28;20531;-71
2023/08/09 02:59:42;;;;;;;9.33;9.03;;;14.10;99.90;;;;;;5091829;28;20473;-69
2023/08/09 03:02:09;;;;;;;9.83;9.53;;;14.10;99.90;;;;;;5097037;28;20465;-71
2023/08/09 03:04:37;;;;;;;10.50;10.10;;;14.10;99.90;;;;;;5104184;28;20457;-70
2023/08/09 03:07:06;;;;;;;10.17;9.87;;;14.10;99.90;;;;;;5097359;28;20585;-72
2023/08/09 03:09:34;;;;;;;10.00;9.70;;;14.20;99.90;;;;;;5094746;28;20493;-70
2023/08/09 03:12:02;;;;;;;10.77;10.37;;;14.20;99.90;;;;;;5097260;28;20461;-72
2023/08/09 03:14:29;;;;;;;9.30;9.00;;;14.20;99.90;;;;;;5094560;28;20446;-71
2023/08/09 03:16:57;;;;;;;9.83;9.53;;;14.10;99.90;;;;;;5091617;28;20478;-71
2023/08/09 03:19:24;;;;;;;10.10;9.80;;;14.10;99.90;;;;;;5095546;28;20457;-71
2023/08/09 03:21:50;;;;;;;10.50;10.10;;;14.10;99.90;;;;;;5097362;28;20458;-71
2023/08/09 03:24:19;;;;;;;9.70;9.40;;;14.20;99.90;;;;;;5101854;28;20453;-70
2023/08/09 03:26:47;;;;;;;10.30;10.00;;;14.10;99.90;;;;;;5092677;28;20496;-71
2023/08/09 03:29:14;;;;;;;10.93;10.53;;;14.10;99.90;;;;;;5096087;28;20538;-70
2023/08/09 03:31:41;;;;;;;11.17;10.77;;;14.10;99.90;;;;;;5094559;28;20536;-72
2023/08/09 03:34:08;;;;;;;11.00;10.60;;;14.10;99.90;;;;;;5100447;28;20445;-70
2023/08/09 03:36:35;;;;;;;10.60;10.20;;;14.20;99.90;;;;;;5094219;28;20473;-72
2023/08/09 03:39:03;;;;;;;10.50;10.10;;;14.10;99.90;;;;;;5103045;28;20452;-70
2023/08/09 03:41:32;;;;;;;10.93;10.53;;;14.10;99.90;;;;;;5104063;28;20461;-71
2023/08/09 03:43:58;;;;;;;10.17;9.87;;;14.10;99.90;;;;;;5101178;28;20464;-72
2023/08/09 03:46:25;;;;;;;10.07;9.77;;;14.10;99.90;;;;;;5093984;28;20496;-70
2023/08/09 03:48:53;;;;;;;10.73;10.33;;;14.10;99.90;;;;;;5097895;28;20453;-70
2023/08/09 03:51:19;;;;;;;10.97;10.57;;;14.10;99.90;;;;;;5103607;28;20462;-72
2023/08/09 03:53:46;;;;;;;10.30;10.00;;;14.10;99.90;;;;;;5094160;28;20476;-71
2023/08/09 03:56:13;;;;;;;10.20;9.90;;;14.10;99.90;;;;;;5095989;27;20465;-69
2023/08/09 03:58:42;;;;;;;10.90;10.50;;;14.10;99.90;;;;;;5101160;28;20464;-69
2023/08/09 04:01:09;;;;;;;10.27;9.97;;;14.10;99.90;;;;;;5109718;28;20460;-71
2023/08/09 04:03:38;;;;;;;10.80;10.40;;;14.00;99.90;;;;;;5096073;28;20462;-71
2023/08/09 04:06:05;;;;;;;10.83;10.43;;;14.00;99.90;;;;;;5096231;28;20805;-70
2023/08/09 04:08:33;;;;;;;10.40;10.00;;;14.10;99.90;;;;;;5102558;28;20497;-70
2023/08/09 04:11:00;;;;;;;10.90;10.50;;;14.10;99.90;;;;;;5097329;28;20464;-70
2023/08/09 04:13:27;;;;;;;11.00;10.60;;;14.10;99.90;;;;;;5097924;28;20877;-71
2023/08/09 04:15:56;;;;;;;10.63;10.23;;;14.10;99.90;;;;;;5093811;28;20474;-70
2023/08/09 04:18:24;;;;;;;11.03;10.63;;;14.10;99.90;;;;;;5093219;28;20460;-70
2023/08/09 04:20:51;;;;;;;10.90;10.50;;;14.20;99.90;;;;;;5093495;28;20458;-70
2023/08/09 04:23:20;;;;;;;10.60;10.20;;;14.20;99.90;;;;;;5101564;28;20789;-70
2023/08/09 04:25:47;;;;;;;11.37;10.97;;;14.20;99.90;;;;;;5095672;28;20461;-70
2023/08/09 04:28:14;;;;;;;11.50;11.10;;;14.10;99.90;;;;;;5101221;28;20544;-70
2023/08/09 04:30:41;;;;;;;12.03;11.63;;;14.20;99.90;;;;;;5097368;28;20473;-69
2023/08/09 04:33:09;;;;;;;11.40;11.00;;;14.20;99.90;;;;;;5097865;28;20452;-69
2023/08/09 04:35:37;;;;;;;11.20;10.80;;;14.10;99.90;;;;;;5095794;28;20462;-69
2023/08/09 04:38:05;;;;;;;11.53;11.13;;;14.00;99.90;;;;;;5092731;28;20488;-70
2023/08/09 04:40:31;;;;;;;11.20;10.80;;;13.90;99.90;;;;;;5092370;28;20465;-69
2023/08/09 04:42:58;;;;;;;11.47;11.07;;;13.90;99.90;;;;;;5089948;28;20789;-70
2023/08/09 04:45:27;;;;;;;11.70;11.30;;;13.80;99.90;;;;;;5097825;28;20972;-69
2023/08/09 04:47:54;;;;;;;11.80;11.40;;;13.80;99.90;;;;;;5089442;28;20489;-69
2023/08/09 04:50:23;;;;;;;11.40;11.00;;;13.90;99.90;;;;;;5096350;28;20821;-69
2023/08/09 04:52:51;;;;;;;11.30;10.90;;;13.80;99.90;;;;;;5096545;28;20462;-69
2023/08/09 04:55:19;;;;;;;12.00;11.60;;;13.80;99.90;;;;;;5098760;28;20928;-69
2023/08/09 04:57:47;;;;;;;12.30;11.90;;;13.80;99.90;;;;;;5101657;28;20810;-69
2023/08/09 05:00:15;;;;;;;11.80;11.40;;;13.80;99.90;;;;;;5100106;28;20521;-69
2023/08/09 05:02:42;;;;;;;11.90;11.50;;;13.90;99.90;;;;;;5096623;28;20826;-69
2023/08/09 05:05:10;;;;;;;11.83;11.43;;;13.80;99.90;;;;;;5089550;28;20457;-70
2023/08/09 05:07:39;;;;;;;13.00;12.50;;;13.80;99.90;;;;;;5089994;28;20513;-69
2023/08/09 05:10:07;;;;;;;12.13;11.73;;;13.80;99.90;;;;;;5097646;28;20834;-69
2023/08/09 05:12:34;;;;;;;12.80;12.30;;;13.80;99.90;;;;;;5089260;28;20477;-70
2023/08/09 05:15:01;;;;;;;12.40;11.90;;;13.90;99.90;;;;;;5091401;28;20484;-70
2023/08/09 05:17:29;;;;;;;12.00;11.60;;;13.90;99.90;;;;;;5097155;28;20472;-70
2023/08/09 05:19:56;;;;;;;11.67;11.27;;;13.90;99.90;;;;;;5090400;28;20462;-69
2023/08/09 05:22:23;;;;;;;11.07;10.67;;;14.00;99.90;;;;;;5099403;28;20462;-70
2023/08/09 05:24:52;;;;;;;11.27;10.87;;;14.00;99.90;;;;;;5096485;28;20973;-69
2023/08/09 05:27:18;;;;;;;11.50;11.10;;;14.10;99.90;;;;;;5095370;28;20501;-69
2023/08/09 05:29:46;;;;;;;11.33;10.93;;;14.20;99.90;;;;;;5094203;28;20458;-70
2023/08/09 05:32:13;;;;;;;10.70;10.30;;;14.30;99.90;;;;;;5094473;28;20465;-69
2023/08/09 05:34:40;;;;;;;11.10;10.70;;;14.40;99.90;;;;;;5092550;28;20503;-69
2023/08/09 05:37:07;;;;;;;11.10;10.70;;;14.40;99.90;;;;;;5100774;28;20468;-69
2023/08/09 05:39:35;;;;;;;10.50;10.10;;;14.50;99.90;;;;;;5091866;28;20462;-69
2023/08/09 05:42:05;;;;;;;9.80;9.50;;;14.60;99.90;;;;;;5094499;28;20465;-69
2023/08/09 05:44:32;;;;;;;9.80;9.50;;;14.80;99.90;;;;;;5089249;28;20465;-70
2023/08/09 05:46:58;;;;;;;9.40;9.10;;;15.00;99.90;;;;;;5103594;28;20486;-69
2023/08/09 05:49:25;;;;;;;9.20;8.90;;;15.10;99.90;;;;;;5092610;28;20557;-68
2023/08/09 05:51:52;;;;;;;9.30;9.00;;;15.10;99.90;;;;;;5090055;28;20466;-69
2023/08/09 05:54:20;;;;;;;9.30;9.00;;;15.20;99.90;;;;;;5101077;28;20493;-69
2023/08/09 05:56:46;;;;;;;8.80;8.50;;;15.20;99.90;;;;;;5096769;28;20476;-70
2023/08/09 05:59:16;;;;;;;8.77;8.47;;;15.10;99.90;;;;;;5099082;28;21007;-69
2023/08/09 06:01:42;;;;;;;9.07;8.77;;;15.10;99.90;;;;;;5098837;28;20492;-68
2023/08/09 06:04:09;;;;;;;9.33;9.03;;;15.20;99.90;;;;;;5093826;28;20465;-70
2023/08/09 06:06:36;;;;;;;9.17;8.87;;;15.30;99.90;;;;;;5095205;28;20473;-68
2023/08/09 06:09:05;;;;;;;9.93;9.63;;;15.50;99.90;;;;;;5097070;28;20488;-68
2023/08/09 06:11:33;;;;;;;10.00;9.70;;;15.60;99.90;;;;;;5092953;28;20506;-70
2023/08/09 06:14:01;;;;;;;9.90;9.60;;;15.60;99.90;;;;;;5105229;28;20503;-70
2023/08/09 06:16:30;;;;;;;9.70;9.40;;;15.60;99.90;;;;;;5096932;28;20493;-70
2023/08/09 06:18:58;;;;;;;10.60;10.20;;;15.70;99.90;;;;;;5094681;28;20461;-69
2023/08/09 06:21:25;;;;;;;10.40;10.00;;;15.80;99.90;;;;;;5092043;28;20564;-70
2023/08/09 06:23:52;;;;;;;11.40;11.00;;;15.80;99.90;;;;;;5094614;28;20473;-70
2023/08/09 06:26:20;;;;;;;10.60;10.20;;;15.90;99.90;;;;;;5092895;28;20483;-68
2023/08/09 06:28:48;;;;;;;10.67;10.27;;;16.00;99.90;;;;;;5089739;28;20461;-70
2023/08/09 06:31:17;;;;;;;10.90;10.50;;;16.00;99.90;;;;;;5104401;28;20469;-70
2023/08/09 06:33:46;;;;;;;11.33;10.93;;;16.00;99.90;;;;;;5092852;28;20559;-69
2023/08/09 06:36:13;;;;;;;11.13;10.73;;;16.00;99.90;;;;;;5091715;28;20464;-69
2023/08/09 06:38:40;;;;;;;12.10;11.70;;;16.10;99.90;;;;;;5098046;28;20754;-70
2023/08/09 06:41:06;;;;;;;12.73;12.23;;;16.20;99.90;;;;;;5093715;28;20461;-70
2023/08/09 06:43:33;;;;;;;12.40;11.90;;;16.30;99.90;;;;;;5095692;28;20460;-69
2023/08/09 06:46:01;;;;;;;11.90;11.50;;;16.50;99.90;;;;;;5097262;28;20465;-70
2023/08/09 06:48:29;;;;;;;12.20;11.70;;;16.50;99.90;;;;;;5097160;28;20478;-68
2023/08/09 06:50:58;;;;;;;12.53;12.03;;;16.40;99.90;;;;;;5102652;28;20624;-69
2023/08/09 06:53:25;;;;;;;12.83;12.33;;;16.40;99.90;;;;;;5099955;28;20984;-69
2023/08/09 06:55:52;;;;;;;12.77;12.27;;;16.40;99.90;;;;;;5091312;28;21451;-68
2023/08/09 06:58:18;;;;;;;13.37;12.87;;;16.50;99.90;;;;;;5094328;28;20466;-70
2023/08/09 07:00:47;;;;;;;14.00;13.40;;;16.60;99.90;;;;;;5091437;28;20454;-70
2023/08/09 07:03:14;;;;;;;12.90;12.40;;;16.90;99.90;;;;;;5103820;28;20546;-69
2023/08/09 07:05:43;;;;;;;12.60;12.10;;;17.00;99.90;;;;;;5098261;28;20446;-68
2023/08/09 07:08:11;;;;;;;13.30;12.80;;;16.90;99.90;;;;;;5101442;28;20804;-68
2023/08/09 07:10:40;;;;;;;13.10;12.60;;;16.90;99.90;;;;;;5087709;28;20472;-69
2023/08/09 07:13:06;;;;;;;14.77;13.97;;;16.90;99.90;;;;;;5100188;28;20507;-67
2023/08/09 07:15:34;;;;;;;14.30;13.70;;;17.00;99.90;;;;;;5092909;28;20529;-69
2023/08/09 07:18:00;;;;;;;14.10;13.50;;;17.00;99.90;;;;;;5102365;28;20471;-70
2023/08/09 07:20:27;;;;;;;14.50;13.90;;;17.00;99.90;;;;;;5094988;28;20469;-68
2023/08/09 07:22:55;;;;;;;15.20;14.50;;;17.00;99.90;;;;;;5092320;28;20449;-67
2023/08/09 07:25:26;;;;;;;14.50;13.90;;;17.00;99.90;;;;;;5099583;28;20457;-68
2023/08/09 07:27:53;;;;;;;14.13;13.53;;;17.00;99.90;;;;;;5096415;28;20912;-68
2023/08/09 07:30:21;;;;;;;14.20;13.60;;;16.90;99.90;;;;;;5090362;28;20701;-69
2023/08/09 07:32:48;;;;;;;16.53;13.33;;;16.80;99.90;;;;;;5092631;28;20454;-68
2023/08/09 07:35:16;;;;;;;12.27;11.77;;;16.60;99.90;;;;;;5099575;28;20889;-69
2023/08/09 07:37:45;;;;;;;11.50;11.10;;;16.50;99.90;;;;;;5093203;28;20458;-68
2023/08/09 07:40:13;;;;;;;10.83;10.43;;;16.30;99.90;;;;;;5093752;28;20811;-68
2023/08/09 07:42:43;;;;;;;10.60;10.20;;;16.10;99.90;;;;;;5093925;28;20465;-69
2023/08/09 07:45:11;;;;;;;10.60;10.10;;;16.10;99.90;;;;;;5092422;27;20453;-69
2023/08/09 07:47:38;;;;;;;9.97;9.57;;;16.10;99.90;;;;;;5088414;28;20489;-69
2023/08/09 07:50:07;;;;;;;10.10;9.70;;;16.20;99.90;;;;;;5091367;28;20855;-69
2023/08/09 07:52:36;;;;;;;9.93;9.53;;;16.30;99.90;;;;;;5090413;27;20809;-68
2023/08/09 07:55:04;;;;;;;10.00;9.60;;;16.40;99.90;;;;;;5091710;28;20707;-70
2023/08/09 07:57:31;;;;;;;9.83;9.43;;;16.50;99.90;;;;;;5092692;28;20748;-69
2023/08/09 07:59:59;;;;;;;9.50;9.20;;;16.60;99.90;;;;;;5088533;28;20468;-69
2023/08/09 08:02:26;;;;;;;9.53;9.23;;;16.80;99.90;;;;;;5093042;28;20475;-69
2023/08/09 08:04:53;;;;;;;8.47;8.17;;;17.00;99.90;;;;;;5091378;28;20511;-69
2023/08/09 08:07:20;;;;;;;9.73;9.23;;;17.10;99.90;;;;;;5087801;28;20533;-67
2023/08/09 08:09:47;;;;;;;9.10;8.80;;;17.30;99.90;;;;;;5092353;28;20489;-68
2023/08/09 08:12:14;;;;;;;9.00;8.70;;;17.60;99.90;;;;;;5093827;28;20454;-67
2023/08/09 08:14:41;;;;;;;9.53;9.23;;;17.60;99.90;;;;;;5095091;28;20454;-68
2023/08/09 08:17:09;;;;;;;10.20;9.80;;;18.00;99.90;;;;;;5092599;28;20849;-70
2023/08/09 08:19:36;;;;;;;10.60;10.20;;;18.30;99.90;;;;;;5095230;28;20458;-69
2023/08/09 08:22:05;;;;;;;11.20;10.80;;;18.90;99.90;;;;;;5092087;28;20546;-69
2023/08/09 08:24:33;;;;;;;11.40;11.00;;;19.10;99.90;;;;;;5090602;28;20462;-68
2023/08/09 08:27:00;;;;;;;11.80;11.30;;;19.30;99.90;;;;;;5097590;28;20464;-69
2023/08/09 08:29:27;;;;;;;12.27;11.77;;;19.40;99.90;;;;;;5091071;28;20484;-69
2023/08/09 08:31:54;;;;;;;12.57;12.07;;;19.70;99.90;;;;;;5093806;28;20460;-69
2023/08/09 08:34:22;;;;;;;14.03;13.33;;;20.00;99.90;;;;;;5085800;28;20601;-69
2023/08/09 08:36:49;;;;;;;14.13;13.53;;;20.00;99.90;;;;;;5090888;28;20469;-68
2023/08/09 08:39:16;;;;;;;13.77;13.17;;;20.10;99.90;;;;;;5095135;28;20461;-70
2023/08/09 08:41:45;;;;;;;13.10;12.60;;;20.40;99.90;;;;;;5097306;28;20465;-70
2023/08/09 08:44:12;;;;;;;13.20;12.70;;;20.90;99.90;;;;;;5091110;28;20552;-70
2023/08/09 08:46:41;;;;;;;13.60;13.00;;;21.30;99.90;;;;;;5092076;28;20577;-69
2023/08/09 08:49:12;;;;;;;14.30;13.70;;;22.10;99.90;;;;;;5091627;28;20485;-70
2023/08/09 08:51:43;;;;;;;14.00;13.40;;;23.00;99.90;;;;;;5090367;28;20509;-69
2023/08/09 08:54:11;;;;;;;14.70;13.83;;;23.80;99.90;;;;;;5086699;28;20469;-68
2023/08/09 08:56:39;;;;;;;14.47;13.87;;;24.30;99.90;;;;;;5092548;28;20450;-70
2023/08/09 08:59:08;;;;;;;15.17;14.47;;;24.10;99.90;;;;;;5088871;28;20867;-69
2023/08/09 09:01:36;;;;;;;14.73;14.13;;;23.80;99.90;;;;;;5089637;28;20530;-68
2023/08/09 09:04:04;;;;;;;14.97;14.27;;;23.30;99.90;;;;;;5091514;28;20446;-69
2023/08/09 09:06:32;;;;;;;14.90;14.20;;;22.60;99.90;;;;;;5084614;28;20472;-68
2023/08/09 09:09:00;;;;;;;15.00;14.30;;;22.30;99.90;;;;;;5088163;28;20496;-70
2023/08/09 09:11:28;;;;;;;14.63;14.03;;;22.30;99.90;;;;;;5087768;28;20466;-68
2023/08/09 09:13:56;;;;;;;15.17;14.47;;;22.60;99.90;;;;;;5095480;28;20461;-68
2023/08/09 09:16:23;;;;;;;15.63;14.93;;;22.80;99.90;;;;;;5088543;28;20869;-68
2023/08/09 09:18:50;;;;;;;15.50;14.80;;;23.10;99.90;;;;;;5093360;28;20568;-68
2023/08/09 09:21:19;;;;;;;14.73;14.13;;;23.10;99.90;;;;;;5099209;28;20540;-69
2023/08/09 09:23:47;;;;;;;14.93;14.33;;;22.70;99.90;;;;;;5090421;28;20450;-68
2023/08/09 09:26:16;;;;;;;15.10;14.40;;;23.00;99.90;;;;;;5087942;28;20886;-68
2023/08/09 09:28:45;;;;;;;14.70;14.10;;;22.90;99.90;;;;;;5096440;28;20551;-68
2023/08/09 09:31:13;;;;;;;14.70;14.10;;;22.30;99.90;;;;;;5096603;28;20459;-70
2023/08/09 09:33:45;;;;;;;15.20;14.50;;;21.90;99.90;;;;;;5090902;28;20458;-71
2023/08/09 09:36:13;;;;;;;15.17;14.47;;;21.30;99.90;;;;;;5099578;28;20828;-69
2023/08/09 09:38:41;;;;;;;15.07;14.37;;;21.10;99.90;;;;;;5099816;28;20939;-69
2023/08/09 09:41:09;;;;;;;15.00;14.30;;;21.20;99.90;;;;;;5096379;28;20457;-69
2023/08/09 09:43:41;;;;;;;14.97;14.30;;;22.20;99.90;;;;;;5094293;28;20596;-70
2023/08/09 09:46:18;;;;;;;15.20;14.50;;;23.20;99.90;;;;;;5088318;28;20481;-69
2023/08/09 09:48:49;;;;;;;15.53;14.83;;;24.70;99.90;;;;;;5086757;28;20578;-71
2023/08/09 09:51:18;;;;;;;15.23;14.53;;;25.70;99.90;;;;;;5093233;28;20521;-70
2023/08/09 09:53:45;;;;;;;15.47;14.77;;;26.70;99.90;;;;;;5090856;28;20457;-71
2023/08/09 09:56:13;;;;;;;15.50;14.80;;;27.40;99.90;;;;;;5092495;28;20548;-69
2023/08/09 09:58:42;;;;;;;15.73;15.03;;;27.50;99.90;;;;;;5101466;28;20800;-69
2023/08/09 10:01:11;;;;;;;16.30;15.60;;;27.10;99.90;;;;;;5101828;28;20584;-70
2023/08/09 10:03:42;;;;;;;15.47;14.77;;;25.70;99.90;;;;;;5094404;28;20509;-69
2023/08/09 10:06:14;;;;;;;14.90;14.30;;;25.00;99.90;;;;;;5093238;28;20462;-69
2023/08/09 10:08:42;;;;;;;15.43;14.73;;;25.00;99.90;;;;;;5094484;28;21000;-69
2023/08/09 10:11:09;;;;;;;15.30;14.60;;;25.00;99.90;;;;;;5099899;28;20457;-69
2023/08/09 10:13:39;;;;;;;14.93;14.33;;;25.00;99.90;;;;;;5096882;28;20470;-69
2023/08/09 10:16:10;;;;;;;15.33;14.73;;;25.20;99.90;;;;;;5098166;28;20480;-69
2023/08/09 10:18:41;;;;;;;14.90;14.30;;;25.80;99.90;;;;;;5105870;28;20457;-70
2023/08/09 10:21:09;;;;;;;14.73;14.13;;;25.60;99.90;;;;;;5086887;28;20457;-71
2023/08/09 10:23:37;;;;;;;14.80;14.20;;;25.30;99.90;;;;;;5106381;28;20448;-68
2023/08/09 10:26:04;;;;;;;15.53;14.83;;;25.60;99.90;;;;;;5103386;28;20465;-69
2023/08/09 10:28:52;;;;;;;15.70;15.00;;;26.70;99.90;;;;;;5103269;28;20492;-70
2023/08/09 10:31:49;;;;;;;16.33;15.63;;;27.40;99.90;;;;;;5092223;28;20457;-67
2023/08/09 10:34:17;;;;;;;16.00;15.30;;;27.10;99.90;;;;;;5097483;28;20572;-68
2023/08/09 10:36:49;;;;;;;16.70;15.90;;;26.40;99.90;;;;;;5101657;28;20548;-69
2023/08/09 10:39:18;;;;;;;15.57;14.87;;;26.80;99.90;;;;;;5097408;28;20461;-69
2023/08/09 10:42:04;;;;;;;16.90;16.10;;;26.90;99.90;;;;;;5093496;28;20462;-70
2023/08/09 10:44:49;;;;;;;16.40;15.70;;;26.80;99.90;;;;;;5096540;28;20456;-69
2023/08/09 10:47:25;;;;;;;16.67;16.07;;;27.00;99.90;;;;;;5094617;28;20999;-70
2023/08/09 10:50:05;;;;;;;15.93;15.33;;;27.20;99.90;;;;;;5090651;28;20489;-69
2023/08/09 10:52:37;;;;;;;16.50;15.80;;;27.60;99.90;;;;;;5091315;28;20476;-69
2023/08/09 10:55:25;;;;;;;16.23;15.63;;;28.10;99.90;;;;;;5095242;28;20947;-71
2023/08/09 10:57:52;;;;;;;16.50;15.90;;;28.20;99.90;;;;;;5082552;28;20464;-70
2023/08/09 11:00:21;;;;;;;15.90;15.30;;;28.00;99.90;;;;;;5098006;28;20453;-71
2023/08/09 11:02:50;;;;;;;15.70;15.20;;;28.40;99.90;;;;;;5098250;28;20457;-69
2023/08/09 11:05:18;;;;;;;16.27;15.67;;;28.00;99.90;;;;;;5088991;28;20467;-72
2023/08/09 11:07:45;;;;;;;16.57;15.97;;;27.70;99.90;;;;;;5093486;28;20454;-70
2023/08/09 11:10:13;;;;;;;16.90;16.30;;;27.40;99.90;;;;;;5091824;28;20481;-71
2023/08/09 11:12:44;;;;;;;16.83;16.23;;;27.30;99.90;;;;;;5093741;28;20491;-70
2023/08/09 11:15:11;;;;;;;15.60;15.10;;;27.30;99.90;;;;;;5090730;28;20508;-72
2023/08/09 11:17:50;;;;;;;16.10;15.50;;;27.00;99.90;;;;;;5094053;28;20450;-71
2023/08/09 11:20:19;;;;;;;15.70;15.20;;;26.60;99.90;;;;;;5090380;28;20457;-71
2023/08/09 11:22:52;;;;;;;15.30;14.80;;;26.50;99.90;;;;;;5097725;28;20940;-72
2023/08/09 11:25:19;;;;;;;15.83;15.23;;;26.70;99.90;;;;;;5095832;28;20457;-73
2023/08/09 11:27:47;;;;;;;14.60;14.10;;;26.70;99.90;;;;;;5094689;28;20819;-70
2023/08/09 11:30:15;;;;;;;15.03;14.53;;;26.40;99.90;;;;;;5089590;28;20489;-71
2023/08/09 11:32:43;;;;;;;15.40;14.90;;;26.30;99.90;;;;;;5089015;28;20466;-73
2023/08/09 11:35:11;;;;;;;14.60;14.10;;;25.90;99.90;;;;;;5094334;28;21087;-70
2023/08/09 11:37:38;;;;;;;15.10;14.60;;;26.00;99.90;;;;;;5087504;28;20465;-71
2023/08/09 11:40:06;;;;;;;15.13;14.63;;;26.30;99.90;;;;;;5094956;28;20464;-70
2023/08/09 11:42:32;;;;;;;15.03;14.53;;;26.30;99.90;;;;;;5088082;28;20535;-70
2023/08/09 11:45:03;;;;;;;15.60;15.10;;;26.70;99.90;;;;;;5096892;28;20465;-72
2023/08/09 11:47:31;;;;;;;15.57;15.07;;;27.80;99.90;;;;;;5088849;28;20450;-70
2023/08/09 11:49:58;;;;;;;16.90;16.30;;;28.60;99.90;;;;;;5097668;28;20577;-70
2023/08/09 11:52:26;;;;;;;15.40;14.90;;;29.80;99.90;;;;;;5091450;28;20464;-72
2023/08/09 11:54:53;;;;;;;15.50;15.00;;;29.90;99.80;;;;;;5101453;28;20454;-69
2023/08/09 11:57:21;;;;;;;15.63;15.13;;;29.90;98.40;;;;;;5090020;28;20481;-71
2023/08/09 11:59:48;;;;;;;16.13;15.53;;;30.50;97.10;;;;;;5096364;28;20537;-69
2023/08/09 12:02:15;;;;;;;15.77;15.27;;;31.00;96.10;;;;;;5091832;28;20956;-68
2023/08/09 12:04:43;;;;;;;15.73;15.23;;;30.20;96.20;;;;;;5091205;28;20465;-71
2023/08/09 12:07:13;;;;;;;16.60;16.00;;;29.50;97.60;;;;;;5094518;27;20469;-69
2023/08/09 12:09:42;;;;;;;16.20;15.60;;;29.00;97.00;;;;;;5087373;28;20767;-68
2023/08/09 12:12:11;;;;;;;16.43;15.83;;;28.10;97.00;;;;;;5095790;28;21025;-69
2023/08/09 12:14:39;;;;;;;16.50;15.90;;;27.90;96.90;;;;;;5088216;28;20470;-69
2023/08/09 12:17:07;;;;;;;15.03;14.53;;;27.80;98.20;;;;;;5092302;28;20477;-69
2023/08/09 12:19:36;;;;;;;15.50;15.00;;;27.30;99.20;;;;;;5095029;28;20457;-69
2023/08/09 12:22:04;;;;;;;15.23;14.73;;;27.60;98.50;;;;;;5094051;28;20534;-71
2023/08/09 12:24:32;;;;;;;15.47;14.97;;;28.70;98.40;;;;;;5091797;28;20465;-69
2023/08/09 12:27:02;;;;;;;15.70;15.20;;;28.70;97.60;;;;;;5093449;28;20441;-69
2023/08/09 12:29:29;;;;;;;14.90;14.40;;;28.30;98.40;;;;;;5092910;28;20493;-69
2023/08/09 12:31:56;;;;;;;16.30;15.70;;;28.40;98.10;;;;;;5096289;28;20453;-70
2023/08/09 12:34:23;;;;;;;16.00;15.40;;;28.40;95.80;;;;;;5091892;28;20528;-71
2023/08/09 12:36:50;;;;;;;16.00;15.40;;;28.40;98.00;;;;;;5089527;28;20450;-71
2023/08/09 12:39:17;;;;;;;15.13;14.63;;;28.80;95.70;;;;;;5091926;28;20454;-71